sensor_id;sensor_type;location;lat;lon;timestamp;temperature;humidity
14079;DHT22;7115;50.150;8.568;2023-04-15T00:02:14;9.30;95.10
14079;DHT22;7115;50.150;8.568;2023-04-15T00:04:42;9.20;95.10
14079;DHT22;7115;50.150;8.568;2023-04-15T00:07:08;9.20;95.20
14079;DHT22;7115;50.150;8.568;2023-04-15T00:09:35;9.20;95.30
14079;DHT22;7115;50.150;8.568;2023-04-15T00:12:03;9.20;95.30
14079;DHT22;7115;50.150;8.568;2023-04-15T00:14:33;9.20;95.40
14079;DHT22;7115;50.150;8.568;2023-04-15T00:17:01;9.10;95.40
14079;DHT22;7115;50.150;8.568;2023-04-15T00:19:29;9.10;95.40
14079;DHT22;7115;50.150;8.568;2023-04-15T00:21:56;9.00;95.50
14079;DHT22;7115;50.150;8.568;2023-04-15T00:24:23;9.00;95.60
14079;DHT22;7115;50.150;8.568;2023-04-15T00:26:50;8.90;95.70
14079;DHT22;7115;50.150;8.568;2023-04-15T00:29:17;8.90;95.80
14079;DHT22;7115;50.150;8.568;2023-04-15T00:31:45;8.90;95.90
14079;DHT22;7115;50.150;8.568;2023-04-15T00:34:12;8.80;96.00
14079;DHT22;7115;50.150;8.568;2023-04-15T00:36:39;8.80;96.10
14079;DHT22;7115;50.150;8.568;2023-04-15T00:39:05;8.70;96.20
14079;DHT22;7115;50.150;8.568;2023-04-15T00:41:32;8.70;96.30
14079;DHT22;7115;50.150;8.568;2023-04-15T00:44:00;8.70;96.40
14079;DHT22;7115;50.150;8.568;2023-04-15T00:46:28;8.70;96.60
14079;DHT22;7115;50.150;8.568;2023-04-15T00:48:57;8.60;96.60
14079;DHT22;7115;50.150;8.568;2023-04-15T00:51:25;8.60;96.60
14079;DHT22;7115;50.150;8.568;2023-04-15T00:53:54;8.50;96.70
14079;DHT22;7115;50.150;8.568;2023-04-15T00:56:22;8.50;96.80
14079;DHT22;7115;50.150;8.568;2023-04-15T00:58:50;8.40;96.80
14079;DHT22;7115;50.150;8.568;2023-04-15T01:01:20;8.40;96.90
14079;DHT22;7115;50.150;8.568;2023-04-15T01:03:50;8.30;97.00
14079;DHT22;7115;50.150;8.568;2023-04-15T01:06:18;8.30;97.00
14079;DHT22;7115;50.150;8.568;2023-04-15T01:08:45;8.30;97.10
14079;DHT22;7115;50.150;8.568;2023-04-15T01:11:12;8.20;97.20
14079;DHT22;7115;50.150;8.568;2023-04-15T01:13:40;8.20;97.20
14079;DHT22;7115;50.150;8.568;2023-04-15T01:16:07;8.20;97.30
14079;DHT22;7115;50.150;8.568;2023-04-15T01:18:35;8.20;97.30
14079;DHT22;7115;50.150;8.568;2023-04-15T01:21:04;8.20;97.40
14079;DHT22;7115;50.150;8.568;2023-04-15T01:23:35;8.10;97.40
14079;DHT22;7115;50.150;8.568;2023-04-15T01:26:07;8.20;97.60
14079;DHT22;7115;50.150;8.568;2023-04-15T01:28:35;8.20;97.60
14079;DHT22;7115;50.150;8.568;2023-04-15T01:31:06;8.20;97.60
14079;DHT22;7115;50.150;8.568;2023-04-15T01:33:33;8.10;97.70
14079;DHT22;7115;50.150;8.568;2023-04-15T01:36:00;8.20;97.70
14079;DHT22;7115;50.150;8.568;2023-04-15T01:38:28;8.10;97.80
14079;DHT22;7115;50.150;8.568;2023-04-15T01:40:55;8.10;97.80
14079;DHT22;7115;50.150;8.568;2023-04-15T01:43:24;8.00;97.90
14079;DHT22;7115;50.150;8.568;2023-04-15T01:45:51;8.00;98.00
14079;DHT22;7115;50.150;8.568;2023-04-15T01:48:18;8.00;98.00
14079;DHT22;7115;50.150;8.568;2023-04-15T01:50:45;8.00;98.10
14079;DHT22;7115;50.150;8.568;2023-04-15T01:53:12;8.00;98.20
14079;DHT22;7115;50.150;8.568;2023-04-15T01:55:39;8.00;98.20
14079;DHT22;7115;50.150;8.568;2023-04-15T01:58:06;8.00;98.30
14079;DHT22;7115;50.150;8.568;2023-04-15T02:00:34;8.00;98.30
14079;DHT22;7115;50.150;8.568;2023-04-15T02:03:01;8.00;98.40
14079;DHT22;7115;50.150;8.568;2023-04-15T02:05:28;8.00;98.40
14079;DHT22;7115;50.150;8.568;2023-04-15T02:07:56;7.90;98.50
14079;DHT22;7115;50.150;8.568;2023-04-15T02:10:23;7.90;98.60
14079;DHT22;7115;50.150;8.568;2023-04-15T02:12:50;7.90;98.60
14079;DHT22;7115;50.150;8.568;2023-04-15T02:15:17;7.90;98.70
14079;DHT22;7115;50.150;8.568;2023-04-15T02:17:45;7.90;98.70
14079;DHT22;7115;50.150;8.568;2023-04-15T02:20:18;7.90;98.70
14079;DHT22;7115;50.150;8.568;2023-04-15T02:22:47;7.90;98.80
14079;DHT22;7115;50.150;8.568;2023-04-15T02:25:14;7.90;98.80
14079;DHT22;7115;50.150;8.568;2023-04-15T02:27:42;7.90;98.90
14079;DHT22;7115;50.150;8.568;2023-04-15T02:30:12;7.80;98.90
14079;DHT22;7115;50.150;8.568;2023-04-15T02:32:39;7.80;99.00
14079;DHT22;7115;50.150;8.568;2023-04-15T02:35:08;7.80;99.00
14079;DHT22;7115;50.150;8.568;2023-04-15T02:37:36;7.80;99.10
14079;DHT22;7115;50.150;8.568;2023-04-15T02:40:08;7.80;99.20
14079;DHT22;7115;50.150;8.568;2023-04-15T02:42:37;7.90;99.30
14079;DHT22;7115;50.150;8.568;2023-04-15T02:45:05;7.80;99.30
14079;DHT22;7115;50.150;8.568;2023-04-15T02:47:32;7.80;99.30
14079;DHT22;7115;50.150;8.568;2023-04-15T02:49:59;7.80;99.70
14079;DHT22;7115;50.150;8.568;2023-04-15T02:52:28;7.80;99.50
14079;DHT22;7115;50.150;8.568;2023-04-15T02:54:55;7.70;99.50
14079;DHT22;7115;50.150;8.568;2023-04-15T02:57:26;7.70;99.60
14079;DHT22;7115;50.150;8.568;2023-04-15T02:59:56;7.60;99.60
14079;DHT22;7115;50.150;8.568;2023-04-15T03:02:23;7.60;99.70
14079;DHT22;7115;50.150;8.568;2023-04-15T03:04:50;7.50;99.90
14079;DHT22;7115;50.150;8.568;2023-04-15T03:07:18;7.50;99.70
14079;DHT22;7115;50.150;8.568;2023-04-15T03:09:46;7.50;99.80
14079;DHT22;7115;50.150;8.568;2023-04-15T03:12:13;7.40;99.80
14079;DHT22;7115;50.150;8.568;2023-04-15T03:14:40;7.40;99.90
14079;DHT22;7115;50.150;8.568;2023-04-15T03:17:07;7.30;99.90
14079;DHT22;7115;50.150;8.568;2023-04-15T03:19:34;7.30;99.90
14079;DHT22;7115;50.150;8.568;2023-04-15T03:22:01;7.30;99.90
14079;DHT22;7115;50.150;8.568;2023-04-15T03:24:28;7.20;99.90
14079;DHT22;7115;50.150;8.568;2023-04-15T03:26:57;7.20;99.90
14079;DHT22;7115;50.150;8.568;2023-04-15T03:29:24;7.20;99.90
14079;DHT22;7115;50.150;8.568;2023-04-15T03:31:51;7.10;99.90
14079;DHT22;7115;50.150;8.568;2023-04-15T03:34:19;7.10;99.90
14079;DHT22;7115;50.150;8.568;2023-04-15T03:36:46;7.10;99.90
14079;DHT22;7115;50.150;8.568;2023-04-15T03:39:13;7.10;99.90
14079;DHT22;7115;50.150;8.568;2023-04-15T03:41:40;7.10;99.90
14079;DHT22;7115;50.150;8.568;2023-04-15T03:44:08;7.10;99.90
14079;DHT22;7115;50.150;8.568;2023-04-15T03:46:35;7.10;99.90
14079;DHT22;7115;50.150;8.568;2023-04-15T03:49:02;7.10;99.90
14079;DHT22;7115;50.150;8.568;2023-04-15T03:51:29;7.10;99.90
14079;DHT22;7115;50.150;8.568;2023-04-15T03:53:57;7.00;99.90
14079;DHT22;7115;50.150;8.568;2023-04-15T03:56:24;7.10;99.90
14079;DHT22;7115;50.150;8.568;2023-04-15T03:58:51;7.10;99.90
14079;DHT22;7115;50.150;8.568;2023-04-15T04:01:34;7.10;99.90
14079;DHT22;7115;50.150;8.568;2023-04-15T04:04:01;7.10;99.90
14079;DHT22;7115;50.150;8.568;2023-04-15T04:06:28;7.10;99.90
14079;DHT22;7115;50.150;8.568;2023-04-15T04:08:55;7.10;99.90
14079;DHT22;7115;50.150;8.568;2023-04-15T04:11:22;7.10;99.90
14079;DHT22;7115;50.150;8.568;2023-04-15T04:13:49;7.10;99.90
14079;DHT22;7115;50.150;8.568;2023-04-15T04:16:15;7.10;99.90
14079;DHT22;7115;50.150;8.568;2023-04-15T04:18:44;7.00;99.90
14079;DHT22;7115;50.150;8.568;2023-04-15T04:21:11;7.00;99.90
14079;DHT22;7115;50.150;8.568;2023-04-15T04:23:38;7.00;99.90
14079;DHT22;7115;50.150;8.568;2023-04-15T04:26:05;7.00;99.90
14079;DHT22;7115;50.150;8.568;2023-04-15T04:28:34;7.00;99.90
14079;DHT22;7115;50.150;8.568;2023-04-15T04:31:02;7.00;99.90
14079;DHT22;7115;50.150;8.568;2023-04-15T04:33:28;7.00;99.90
14079;DHT22;7115;50.150;8.568;2023-04-15T04:35:57;7.00;99.90
14079;DHT22;7115;50.150;8.568;2023-04-15T04:38:24;7.00;99.90
14079;DHT22;7115;50.150;8.568;2023-04-15T04:40:51;7.00;99.90
14079;DHT22;7115;50.150;8.568;2023-04-15T04:43:18;7.00;99.90
14079;DHT22;7115;50.150;8.568;2023-04-15T04:45:45;7.00;99.90
14079;DHT22;7115;50.150;8.568;2023-04-15T04:48:12;7.00;99.90
14079;DHT22;7115;50.150;8.568;2023-04-15T04:50:39;7.00;99.90
14079;DHT22;7115;50.150;8.568;2023-04-15T04:53:07;7.00;99.90
14079;DHT22;7115;50.150;8.568;2023-04-15T04:55:34;7.00;99.90
14079;DHT22;7115;50.150;8.568;2023-04-15T04:58:02;7.00;99.90
14079;DHT22;7115;50.150;8.568;2023-04-15T05:00:29;6.90;99.90
14079;DHT22;7115;50.150;8.568;2023-04-15T05:02:56;6.90;99.90
14079;DHT22;7115;50.150;8.568;2023-04-15T05:05:23;6.90;99.90
14079;DHT22;7115;50.150;8.568;2023-04-15T05:07:50;6.90;99.90
14079;DHT22;7115;50.150;8.568;2023-04-15T05:10:18;7.00;99.90
14079;DHT22;7115;50.150;8.568;2023-04-15T05:12:45;7.00;99.90
14079;DHT22;7115;50.150;8.568;2023-04-15T05:15:12;7.00;99.90
14079;DHT22;7115;50.150;8.568;2023-04-15T05:17:39;7.00;99.90
14079;DHT22;7115;50.150;8.568;2023-04-15T05:20:07;7.00;99.90
14079;DHT22;7115;50.150;8.568;2023-04-15T05:22:34;7.00;99.90
14079;DHT22;7115;50.150;8.568;2023-04-15T05:25:01;7.10;99.90
14079;DHT22;7115;50.150;8.568;2023-04-15T05:27:29;7.10;99.90
14079;DHT22;7115;50.150;8.568;2023-04-15T05:29:56;7.10;99.90
14079;DHT22;7115;50.150;8.568;2023-04-15T05:32:23;7.20;99.90
14079;DHT22;7115;50.150;8.568;2023-04-15T05:34:50;7.20;99.90
14079;DHT22;7115;50.150;8.568;2023-04-15T05:37:17;7.20;99.90
14079;DHT22;7115;50.150;8.568;2023-04-15T05:39:46;7.20;99.90
14079;DHT22;7115;50.150;8.568;2023-04-15T05:42:13;7.20;99.90
14079;DHT22;7115;50.150;8.568;2023-04-15T05:44:42;7.30;99.90
14079;DHT22;7115;50.150;8.568;2023-04-15T05:47:09;7.30;99.90
14079;DHT22;7115;50.150;8.568;2023-04-15T05:49:36;7.30;99.90
14079;DHT22;7115;50.150;8.568;2023-04-15T05:52:03;7.40;99.90
14079;DHT22;7115;50.150;8.568;2023-04-15T05:54:30;7.40;99.90
14079;DHT22;7115;50.150;8.568;2023-04-15T05:56:57;7.50;99.90
14079;DHT22;7115;50.150;8.568;2023-04-15T05:59:24;7.60;99.90
14079;DHT22;7115;50.150;8.568;2023-04-15T06:01:53;7.70;99.90
14079;DHT22;7115;50.150;8.568;2023-04-15T06:04:19;7.70;99.90
14079;DHT22;7115;50.150;8.568;2023-04-15T06:06:47;7.80;99.90
14079;DHT22;7115;50.150;8.568;2023-04-15T06:09:14;7.90;99.90
14079;DHT22;7115;50.150;8.568;2023-04-15T06:11:41;8.00;99.90
14079;DHT22;7115;50.150;8.568;2023-04-15T06:14:08;8.00;99.90
14079;DHT22;7115;50.150;8.568;2023-04-15T06:16:35;8.10;99.90
14079;DHT22;7115;50.150;8.568;2023-04-15T06:19:03;8.20;99.90
14079;DHT22;7115;50.150;8.568;2023-04-15T06:21:30;8.30;99.90
14079;DHT22;7115;50.150;8.568;2023-04-15T06:23:58;8.40;99.90
14079;DHT22;7115;50.150;8.568;2023-04-15T06:26:27;8.50;99.90
14079;DHT22;7115;50.150;8.568;2023-04-15T06:28:53;8.60;99.90
14079;DHT22;7115;50.150;8.568;2023-04-15T06:31:21;8.70;99.90
14079;DHT22;7115;50.150;8.568;2023-04-15T06:33:48;8.80;99.90
14079;DHT22;7115;50.150;8.568;2023-04-15T06:36:17;8.90;99.90
14079;DHT22;7115;50.150;8.568;2023-04-15T06:38:44;9.00;99.90
14079;DHT22;7115;50.150;8.568;2023-04-15T06:41:11;9.10;99.90
14079;DHT22;7115;50.150;8.568;2023-04-15T06:43:38;9.20;99.90
14079;DHT22;7115;50.150;8.568;2023-04-15T06:46:05;9.30;99.90
14079;DHT22;7115;50.150;8.568;2023-04-15T06:48:32;9.40;99.90
14079;DHT22;7115;50.150;8.568;2023-04-15T06:50:59;9.60;99.90
14079;DHT22;7115;50.150;8.568;2023-04-15T06:53:27;9.70;99.90
14079;DHT22;7115;50.150;8.568;2023-04-15T06:55:54;9.90;99.90
14079;DHT22;7115;50.150;8.568;2023-04-15T06:58:21;10.10;99.90
14079;DHT22;7115;50.150;8.568;2023-04-15T07:00:48;10.10;99.90
14079;DHT22;7115;50.150;8.568;2023-04-15T07:03:15;10.20;99.90
14079;DHT22;7115;50.150;8.568;2023-04-15T07:05:42;10.30;99.90
14079;DHT22;7115;50.150;8.568;2023-04-15T07:08:09;10.40;99.90
14079;DHT22;7115;50.150;8.568;2023-04-15T07:10:37;10.50;99.90
14079;DHT22;7115;50.150;8.568;2023-04-15T07:13:04;10.60;99.90
14079;DHT22;7115;50.150;8.568;2023-04-15T07:15:31;10.80;99.90
14079;DHT22;7115;50.150;8.568;2023-04-15T07:17:59;11.00;99.90
14079;DHT22;7115;50.150;8.568;2023-04-15T07:20:25;11.10;99.90
14079;DHT22;7115;50.150;8.568;2023-04-15T07:22:53;11.30;99.90
14079;DHT22;7115;50.150;8.568;2023-04-15T07:25:20;11.50;99.90
14079;DHT22;7115;50.150;8.568;2023-04-15T07:27:48;11.70;99.90
14079;DHT22;7115;50.150;8.568;2023-04-15T07:30:15;11.80;99.90
14079;DHT22;7115;50.150;8.568;2023-04-15T07:32:42;12.00;99.90
14079;DHT22;7115;50.150;8.568;2023-04-15T07:35:09;12.20;99.90
14079;DHT22;7115;50.150;8.568;2023-04-15T07:37:37;12.40;99.90
14079;DHT22;7115;50.150;8.568;2023-04-15T07:40:05;12.60;99.90
14079;DHT22;7115;50.150;8.568;2023-04-15T07:42:33;12.70;99.90
14079;DHT22;7115;50.150;8.568;2023-04-15T07:45:01;12.80;99.90
14079;DHT22;7115;50.150;8.568;2023-04-15T07:47:28;12.80;99.90
14079;DHT22;7115;50.150;8.568;2023-04-15T07:49:55;12.80;99.90
14079;DHT22;7115;50.150;8.568;2023-04-15T07:52:22;12.80;99.90
14079;DHT22;7115;50.150;8.568;2023-04-15T07:54:49;12.80;99.90
14079;DHT22;7115;50.150;8.568;2023-04-15T07:57:16;12.50;99.90
14079;DHT22;7115;50.150;8.568;2023-04-15T07:59:43;12.80;99.90
14079;DHT22;7115;50.150;8.568;2023-04-15T08:02:11;12.80;99.90
14079;DHT22;7115;50.150;8.568;2023-04-15T08:04:38;12.80;99.90
14079;DHT22;7115;50.150;8.568;2023-04-15T08:07:06;12.80;99.90
14079;DHT22;7115;50.150;8.568;2023-04-15T08:09:33;12.80;99.90
14079;DHT22;7115;50.150;8.568;2023-04-15T08:12:00;12.80;99.90
14079;DHT22;7115;50.150;8.568;2023-04-15T08:14:27;12.90;99.90
14079;DHT22;7115;50.150;8.568;2023-04-15T08:16:54;12.90;99.90
14079;DHT22;7115;50.150;8.568;2023-04-15T08:19:22;13.10;99.90
14079;DHT22;7115;50.150;8.568;2023-04-15T08:21:50;13.10;99.90
14079;DHT22;7115;50.150;8.568;2023-04-15T08:24:17;13.20;99.90
14079;DHT22;7115;50.150;8.568;2023-04-15T08:26:44;13.20;99.90
14079;DHT22;7115;50.150;8.568;2023-04-15T08:29:15;13.30;99.80
14079;DHT22;7115;50.150;8.568;2023-04-15T08:31:42;13.30;99.60
14079;DHT22;7115;50.150;8.568;2023-04-15T08:34:10;13.30;99.40
14079;DHT22;7115;50.150;8.568;2023-04-15T08:36:38;13.30;99.20
14079;DHT22;7115;50.150;8.568;2023-04-15T08:39:05;13.40;99.10
14079;DHT22;7115;50.150;8.568;2023-04-15T08:41:38;13.50;99.00
14079;DHT22;7115;50.150;8.568;2023-04-15T08:44:05;13.60;98.80
14079;DHT22;7115;50.150;8.568;2023-04-15T08:46:32;13.60;98.60
14079;DHT22;7115;50.150;8.568;2023-04-15T08:49:02;13.80;98.40
14079;DHT22;7115;50.150;8.568;2023-04-15T08:51:31;13.90;98.20
14079;DHT22;7115;50.150;8.568;2023-04-15T08:54:01;14.00;98.10
14079;DHT22;7115;50.150;8.568;2023-04-15T08:56:30;14.10;97.80
14079;DHT22;7115;50.150;8.568;2023-04-15T08:58:59;14.30;97.70
14079;DHT22;7115;50.150;8.568;2023-04-15T09:01:26;14.40;97.40
14079;DHT22;7115;50.150;8.568;2023-04-15T09:03:53;14.40;97.20
14079;DHT22;7115;50.150;8.568;2023-04-15T09:06:22;14.50;97.00
14079;DHT22;7115;50.150;8.568;2023-04-15T09:08:50;14.60;97.00
14079;DHT22;7115;50.150;8.568;2023-04-15T09:11:20;14.70;96.40
14079;DHT22;7115;50.150;8.568;2023-04-15T09:13:48;14.80;96.30
14079;DHT22;7115;50.150;8.568;2023-04-15T09:16:15;14.90;96.40
14079;DHT22;7115;50.150;8.568;2023-04-15T09:18:42;15.00;96.40
14079;DHT22;7115;50.150;8.568;2023-04-15T09:21:10;15.30;96.50
14079;DHT22;7115;50.150;8.568;2023-04-15T09:23:39;15.40;96.30
14079;DHT22;7115;50.150;8.568;2023-04-15T09:26:06;15.60;96.00
14079;DHT22;7115;50.150;8.568;2023-04-15T09:28:41;15.70;95.80
14079;DHT22;7115;50.150;8.568;2023-04-15T09:31:09;15.90;95.50
14079;DHT22;7115;50.150;8.568;2023-04-15T09:33:53;16.00;94.30
14079;DHT22;7115;50.150;8.568;2023-04-15T09:36:20;16.00;93.60
14079;DHT22;7115;50.150;8.568;2023-04-15T09:38:54;15.90;93.40
14079;DHT22;7115;50.150;8.568;2023-04-15T09:41:22;15.90;93.00
14079;DHT22;7115;50.150;8.568;2023-04-15T09:43:50;15.70;92.80
14079;DHT22;7115;50.150;8.568;2023-04-15T09:46:17;15.50;92.50
14079;DHT22;7115;50.150;8.568;2023-04-15T09:48:44;15.40;92.40
14079;DHT22;7115;50.150;8.568;2023-04-15T09:51:11;15.30;92.30
14079;DHT22;7115;50.150;8.568;2023-04-15T09:53:38;15.10;92.20
14079;DHT22;7115;50.150;8.568;2023-04-15T09:56:05;15.00;92.10
14079;DHT22;7115;50.150;8.568;2023-04-15T09:58:34;14.90;92.00
14079;DHT22;7115;50.150;8.568;2023-04-15T10:01:05;14.80;91.80
14079;DHT22;7115;50.150;8.568;2023-04-15T10:03:34;14.70;91.60
14079;DHT22;7115;50.150;8.568;2023-04-15T10:06:03;14.60;91.40
14079;DHT22;7115;50.150;8.568;2023-04-15T10:08:32;14.50;91.30
14079;DHT22;7115;50.150;8.568;2023-04-15T10:11:01;14.50;90.90
14079;DHT22;7115;50.150;8.568;2023-04-15T10:13:30;14.50;91.10
14079;DHT22;7115;50.150;8.568;2023-04-15T10:16:07;14.50;91.10
14079;DHT22;7115;50.150;8.568;2023-04-15T10:18:39;14.40;91.20
14079;DHT22;7115;50.150;8.568;2023-04-15T10:21:08;14.40;91.30
14079;DHT22;7115;50.150;8.568;2023-04-15T10:23:35;14.50;91.40
14079;DHT22;7115;50.150;8.568;2023-04-15T10:26:03;14.40;91.50
14079;DHT22;7115;50.150;8.568;2023-04-15T10:28:30;14.40;91.50
14079;DHT22;7115;50.150;8.568;2023-04-15T10:30:57;14.30;91.60
14079;DHT22;7115;50.150;8.568;2023-04-15T10:33:27;14.40;91.60
14079;DHT22;7115;50.150;8.568;2023-04-15T10:35:55;14.40;91.70
14079;DHT22;7115;50.150;8.568;2023-04-15T10:38:36;14.40;91.80
14079;DHT22;7115;50.150;8.568;2023-04-15T10:41:17;14.40;92.40
14079;DHT22;7115;50.150;8.568;2023-04-15T10:43:48;14.40;92.30
14079;DHT22;7115;50.150;8.568;2023-04-15T10:46:18;14.50;92.40
14079;DHT22;7115;50.150;8.568;2023-04-15T10:48:49;14.60;92.50
14079;DHT22;7115;50.150;8.568;2023-04-15T10:51:24;14.70;92.40
14079;DHT22;7115;50.150;8.568;2023-04-15T10:53:56;14.80;92.30
14079;DHT22;7115;50.150;8.568;2023-04-15T10:56:23;14.90;92.30
14079;DHT22;7115;50.150;8.568;2023-04-15T10:58:51;15.00;92.20
14079;DHT22;7115;50.150;8.568;2023-04-15T11:01:19;15.10;92.40
14079;DHT22;7115;50.150;8.568;2023-04-15T11:03:48;15.10;92.50
14079;DHT22;7115;50.150;8.568;2023-04-15T11:06:15;15.20;92.60
14079;DHT22;7115;50.150;8.568;2023-04-15T11:08:53;15.20;92.60
14079;DHT22;7115;50.150;8.568;2023-04-15T11:11:20;15.20;92.60
14079;DHT22;7115;50.150;8.568;2023-04-15T11:13:48;15.10;92.80
14079;DHT22;7115;50.150;8.568;2023-04-15T11:16:15;15.10;92.90
14079;DHT22;7115;50.150;8.568;2023-04-15T11:18:54;15.10;93.30
14079;DHT22;7115;50.150;8.568;2023-04-15T11:21:24;15.00;93.20
14079;DHT22;7115;50.150;8.568;2023-04-15T11:23:51;15.00;93.40
14079;DHT22;7115;50.150;8.568;2023-04-15T11:26:18;15.00;93.50
14079;DHT22;7115;50.150;8.568;2023-04-15T11:28:51;15.00;93.50
14079;DHT22;7115;50.150;8.568;2023-04-15T11:31:18;15.10;93.70
14079;DHT22;7115;50.150;8.568;2023-04-15T11:33:47;15.10;93.80
14079;DHT22;7115;50.150;8.568;2023-04-15T11:36:20;15.10;93.90
14079;DHT22;7115;50.150;8.568;2023-04-15T11:38:49;15.00;94.10
14079;DHT22;7115;50.150;8.568;2023-04-15T11:41:19;14.90;94.20
14079;DHT22;7115;50.150;8.568;2023-04-15T11:43:47;14.80;94.40
14079;DHT22;7115;50.150;8.568;2023-04-15T11:46:14;14.70;94.60
14079;DHT22;7115;50.150;8.568;2023-04-15T11:48:42;14.60;94.80
14079;DHT22;7115;50.150;8.568;2023-04-15T11:51:11;14.50;95.10
14079;DHT22;7115;50.150;8.568;2023-04-15T11:53:41;14.40;95.40
14079;DHT22;7115;50.150;8.568;2023-04-15T11:56:09;14.30;95.70
14079;DHT22;7115;50.150;8.568;2023-04-15T11:58:37;14.10;95.90
14079;DHT22;7115;50.150;8.568;2023-04-15T12:01:05;14.00;96.00
14079;DHT22;7115;50.150;8.568;2023-04-15T12:03:37;13.90;96.10
14079;DHT22;7115;50.150;8.568;2023-04-15T12:06:12;13.80;96.20
14079;DHT22;7115;50.150;8.568;2023-04-15T12:08:54;13.80;96.30
14079;DHT22;7115;50.150;8.568;2023-04-15T12:11:31;13.60;96.40
14079;DHT22;7115;50.150;8.568;2023-04-15T12:14:03;13.50;96.50
14079;DHT22;7115;50.150;8.568;2023-04-15T12:16:32;13.50;96.70
14079;DHT22;7115;50.150;8.568;2023-04-15T12:19:05;13.50;96.80
14079;DHT22;7115;50.150;8.568;2023-04-15T12:21:35;13.40;97.00
14079;DHT22;7115;50.150;8.568;2023-04-15T12:24:06;13.40;97.30
14079;DHT22;7115;50.150;8.568;2023-04-15T12:26:36;13.40;97.50
14079;DHT22;7115;50.150;8.568;2023-04-15T12:29:04;13.40;97.60
14079;DHT22;7115;50.150;8.568;2023-04-15T12:31:33;13.40;97.70
14079;DHT22;7115;50.150;8.568;2023-04-15T12:34:00;13.30;97.70
14079;DHT22;7115;50.150;8.568;2023-04-15T12:36:28;13.20;97.70
14079;DHT22;7115;50.150;8.568;2023-04-15T12:38:57;13.10;97.80
14079;DHT22;7115;50.150;8.568;2023-04-15T12:41:25;13.00;98.00
14079;DHT22;7115;50.150;8.568;2023-04-15T12:43:52;12.90;98.10
14079;DHT22;7115;50.150;8.568;2023-04-15T12:46:19;12.90;98.30
14079;DHT22;7115;50.150;8.568;2023-04-15T12:48:47;12.90;98.80
14079;DHT22;7115;50.150;8.568;2023-04-15T12:51:14;12.90;98.60
14079;DHT22;7115;50.150;8.568;2023-04-15T12:53:40;12.90;98.70
14079;DHT22;7115;50.150;8.568;2023-04-15T12:56:07;12.90;98.80
14079;DHT22;7115;50.150;8.568;2023-04-15T12:58:36;12.80;98.90
14079;DHT22;7115;50.150;8.568;2023-04-15T13:01:03;12.80;99.10
14079;DHT22;7115;50.150;8.568;2023-04-15T13:03:30;12.70;99.20
14079;DHT22;7115;50.150;8.568;2023-04-15T13:05:57;12.70;99.70
14079;DHT22;7115;50.150;8.568;2023-04-15T13:08:23;12.70;99.50
14079;DHT22;7115;50.150;8.568;2023-04-15T13:10:50;12.60;99.70
14079;DHT22;7115;50.150;8.568;2023-04-15T13:13:17;12.50;99.80
14079;DHT22;7115;50.150;8.568;2023-04-15T13:15:45;12.40;99.90
14079;DHT22;7115;50.150;8.568;2023-04-15T13:18:12;12.40;99.90
14079;DHT22;7115;50.150;8.568;2023-04-15T13:20:39;12.40;99.90
14079;DHT22;7115;50.150;8.568;2023-04-15T13:23:08;12.40;99.90
14079;DHT22;7115;50.150;8.568;2023-04-15T13:25:35;12.40;99.90
14079;DHT22;7115;50.150;8.568;2023-04-15T13:28:02;12.40;99.90
14079;DHT22;7115;50.150;8.568;2023-04-15T13:30:29;12.40;99.90
14079;DHT22;7115;50.150;8.568;2023-04-15T13:32:58;12.40;99.90
14079;DHT22;7115;50.150;8.568;2023-04-15T13:35:25;12.40;99.90
14079;DHT22;7115;50.150;8.568;2023-04-15T13:37:53;12.30;99.90
14079;DHT22;7115;50.150;8.568;2023-04-15T13:40:20;12.30;99.90
14079;DHT22;7115;50.150;8.568;2023-04-15T13:42:47;12.30;99.90
14079;DHT22;7115;50.150;8.568;2023-04-15T13:45:14;12.30;99.90
14079;DHT22;7115;50.150;8.568;2023-04-15T13:47:41;12.30;99.90
14079;DHT22;7115;50.150;8.568;2023-04-15T13:50:10;12.20;99.90
14079;DHT22;7115;50.150;8.568;2023-04-15T13:52:37;12.20;99.90
14079;DHT22;7115;50.150;8.568;2023-04-15T13:55:05;12.20;99.90
14079;DHT22;7115;50.150;8.568;2023-04-15T13:57:45;12.10;99.90
14079;DHT22;7115;50.150;8.568;2023-04-15T14:00:13;12.20;99.90
14079;DHT22;7115;50.150;8.568;2023-04-15T14:02:40;12.10;99.90
14079;DHT22;7115;50.150;8.568;2023-04-15T14:05:10;12.20;99.90
14079;DHT22;7115;50.150;8.568;2023-04-15T14:07:37;12.10;99.90
14079;DHT22;7115;50.150;8.568;2023-04-15T14:10:04;12.10;99.90
14079;DHT22;7115;50.150;8.568;2023-04-15T14:12:31;12.10;99.90
14079;DHT22;7115;50.150;8.568;2023-04-15T14:14:58;12.10;99.90
14079;DHT22;7115;50.150;8.568;2023-04-15T14:17:25;12.10;99.90
14079;DHT22;7115;50.150;8.568;2023-04-15T14:19:52;12.20;99.90
14079;DHT22;7115;50.150;8.568;2023-04-15T14:22:20;12.00;99.90
14079;DHT22;7115;50.150;8.568;2023-04-15T14:24:47;12.20;99.90
14079;DHT22;7115;50.150;8.568;2023-04-15T14:27:14;12.20;99.90
14079;DHT22;7115;50.150;8.568;2023-04-15T14:29:42;12.10;99.90
14079;DHT22;7115;50.150;8.568;2023-04-15T14:32:09;12.10;99.90
14079;DHT22;7115;50.150;8.568;2023-04-15T14:34:38;12.10;99.90
14079;DHT22;7115;50.150;8.568;2023-04-15T14:37:05;12.10;99.90
14079;DHT22;7115;50.150;8.568;2023-04-15T14:39:33;12.10;99.90
14079;DHT22;7115;50.150;8.568;2023-04-15T14:42:00;12.10;99.90
14079;DHT22;7115;50.150;8.568;2023-04-15T14:44:28;12.20;99.90
14079;DHT22;7115;50.150;8.568;2023-04-15T14:46:55;12.20;99.90
14079;DHT22;7115;50.150;8.568;2023-04-15T14:49:22;12.20;99.90
14079;DHT22;7115;50.150;8.568;2023-04-15T14:51:49;12.20;99.90
14079;DHT22;7115;50.150;8.568;2023-04-15T14:54:16;12.20;99.90
14079;DHT22;7115;50.150;8.568;2023-04-15T14:56:44;12.20;99.90
14079;DHT22;7115;50.150;8.568;2023-04-15T14:59:11;12.20;99.90
14079;DHT22;7115;50.150;8.568;2023-04-15T15:01:38;12.20;99.90
14079;DHT22;7115;50.150;8.568;2023-04-15T15:04:05;12.20;99.90
14079;DHT22;7115;50.150;8.568;2023-04-15T15:06:32;12.20;99.90
14079;DHT22;7115;50.150;8.568;2023-04-15T15:08:59;12.20;99.90
14079;DHT22;7115;50.150;8.568;2023-04-15T15:11:29;12.20;99.90
14079;DHT22;7115;50.150;8.568;2023-04-15T15:13:57;12.10;99.90
14079;DHT22;7115;50.150;8.568;2023-04-15T15:16:24;12.10;99.90
14079;DHT22;7115;50.150;8.568;2023-04-15T15:18:51;12.00;99.90
14079;DHT22;7115;50.150;8.568;2023-04-15T15:21:18;12.10;99.90
14079;DHT22;7115;50.150;8.568;2023-04-15T15:23:45;12.10;99.90
14079;DHT22;7115;50.150;8.568;2023-04-15T15:26:13;12.10;99.90
14079;DHT22;7115;50.150;8.568;2023-04-15T15:28:41;12.10;99.90
14079;DHT22;7115;50.150;8.568;2023-04-15T15:31:09;12.10;99.90
14079;DHT22;7115;50.150;8.568;2023-04-15T15:33:36;12.10;99.90
14079;DHT22;7115;50.150;8.568;2023-04-15T15:36:03;12.10;99.90
14079;DHT22;7115;50.150;8.568;2023-04-15T15:38:30;12.10;99.90
14079;DHT22;7115;50.150;8.568;2023-04-15T15:40:57;12.10;99.90
14079;DHT22;7115;50.150;8.568;2023-04-15T15:43:24;12.00;99.90
14079;DHT22;7115;50.150;8.568;2023-04-15T15:45:51;12.10;99.90
14079;DHT22;7115;50.150;8.568;2023-04-15T15:48:22;12.10;99.90
14079;DHT22;7115;50.150;8.568;2023-04-15T15:50:50;12.10;99.90
14079;DHT22;7115;50.150;8.568;2023-04-15T15:53:17;12.10;99.90
14079;DHT22;7115;50.150;8.568;2023-04-15T15:55:46;12.00;99.90
14079;DHT22;7115;50.150;8.568;2023-04-15T15:58:14;12.00;99.90